Tiempo atmosférico en la estación meteorológica de Montanejos, Castelló/Castellón (601 m.)



Fecha
DESCASC
Temp. máxima en grados centígrados (hora)
DESCASC
Temp. mínima en grados centígrados (hora)
DESCASC
Temp. media en grados centígrados
DESCASC
Racha de viento máxima en m/sg (hora)
DESCASC
Velocidad máxima media en intervalos de 10 minutos(hora)
DESCASC
Precipitaciones diarias en mm
DESCASC
Precipitaciones de 00:00 a 06:00 en mm
DESCASC
Precipitaciones de 06:00 a 12:00 en mm
DESCASC
Precipitaciones de 12:00 a 18:00 en mm
DESCASC
Precipitaciones de 18:00 a 24:00 en mm
DESCASC
22-01-2020 10.9 (14:20) 3.4 (08:30) 7.1 7.5 (19:20) 4.72 (14:00) 8.2 2.2 0.2 1 4.8
21-01-2020 9 (14:10) 3.6 (01:50) 6.3 10.83 (13:50) 4.44 (15:00) 64.8 12.8 14.8 32.4 4.8
20-01-2020 5.4 (01:00) 3 (04:20) 4.2 12.78 (19:10) 4.72 (19:20) 4.6 0 0 2.2 2.4
19-01-2020 8.4 (03:40) 3.7 (00:00) 6 8.61 (03:40) 4.72 (03:40) 11.4 0.4 5.6 5.4 0
18-01-2020 13.5 (14:30) 4.5 (00:00) 9 7.78 (16:10) 4.44 (15:10) 0 0 0 0 0
17-01-2020 13.8 (14:00) 3.2 (00:00) 8.5 13.06 (14:10) 7.22 (15:20) 0 0 0 0 0
16-01-2020 16.3 (15:10) 2.9 (00:00) 9.6 5.56 (15:30) 3.33 (02:30) 0 0 0 0 0
15-01-2020 16 (15:20) -0.6 (-00:0) 7.7 7.22 (13:30) 4.44 (13:30) 0 0 0 0 0
14-01-2020 14.7 (15:00) -1.3 (-00:0) 6.7 5.28 (16:00) 3.61 (14:30) 0 0 0 0 0
13-01-2020 13.6 (14:40) -1.2 (-00:0) 6.2 5 (04:10) 3.33 (04:00) 0 0 0 0 0
12-01-2020 13.6 (14:10) -1.1 (-00:0) 6.3 7.5 (14:40) 5 (14:40) 0 0 0 0 0
11-01-2020 14.3 (15:20) 1.2 (00:00) 7.8 7.78 (02:10) 5 (16:20) 0 0 0 0 0
10-01-2020 11.5 (13:10) 3.4 (00:00) 7.5 15 (10:50) 6.39 (10:20) 0 0 0 0 0
09-01-2020 13.8 (14:30) 1.2 (00:00) 7.5 6.11 (14:40) 3.61 (14:00) 0 0 0 0 0
08-01-2020 12.9 (15:00) 2.9 (00:00) 7.9 6.67 (12:10) 4.17 (12:10) 0 0 0 0 0
07-01-2020 16 (15:00) 0.5 (00:00) 8.3 7.22 (15:20) 4.44 (15:20) 0 0 0 0 0
06-01-2020 13.7 (14:50) 0.1 (00:00) 6.9 5.56 (14:20) 3.89 (14:20) 0 0 0 0 0
05-01-2020 15.7 (15:20) 1.1 (00:00) 8.4 4.72 (16:10) 3.33 (16:10) 0 0 0 0 0
04-01-2020 13.6 (14:30) 3 (00:00) 8.3 6.39 (19:30) 3.33 (19:40) 0 0 0 0 0
03-01-2020 13.7 (14:50) 1.5 (00:00) 7.6 6.11 (15:30) 3.89 (15:30) 0 0 0 0 0
02-01-2020 11.9 (15:00) -0.7 (-00:0) 5.6 6.11 (15:30) 4.17 (14:40) 0 0 0 0 0
01-01-2020 12.8 (14:50) 0.4 (00:00) 6.6 6.11 (16:30) 4.17 (14:40) 0 0 0 0 0
31-12-2019 12 (15:00) -0.1 (00:00) 5.9 5 (16:40) 3.33 (14:30) 0 0 0 0 0
30-12-2019 11.4 (15:00) -0.1 (00:00) 5.6 -- (--) -- (--) 0 0 0 0 0
29-12-2019 13.8 (15:10) 0.1 (00:00) 7 5.83 (17:30) 3.89 (16:30) 0 0 0 0 0
28-12-2019 14.7 (15:10) 0.3 (00:00) 7.5 7.22 (15:50) 4.17 (15:50) 0 0 0 0 0
27-12-2019 15.5 (15:10) 1.3 (00:00) 8.4 5.56 (09:10) 3.33 (08:50) 0 0 0 0 0

Gráficas

Temp. máximas Temp. mínimas Temp. medias Precipitaciones Rachas de viento máximas Velocidades máximas media en intervalos de 10 minutos

Datos horarios

Fecha y hora oficial Temperatura (ºC) Velocidad del viento (km/h) Dirección del viento Racha (km/h) Dirección de racha Precipitación (mm) Presión (hPa) Tendencia (hPa) Humedad (%)
2020-01-25 23:00:00 6.5 0 Calma 2 Nordeste 0 -- -- 98
2020-01-25 22:00:00 6.5 0 Calma 5 Noroeste 0.2 -- -- 98
2020-01-25 21:00:00 6.6 0 Calma 8 Noroeste 4.4 -- -- 97
2020-01-25 20:00:00 6.9 7 Noroeste 22 Oeste 5.6 -- -- 94
2020-01-25 19:00:00 8.5 0 Calma 15 Sur 1.4 -- -- 96
2020-01-25 18:00:00 9 6 Sur 13 Sur 0 -- -- 92
2020-01-25 17:00:00 9.3 8 Sur 14 Sudoeste 0 -- -- 89
2020-01-25 16:00:00 9.3 10 Sur 14 Sur 0 -- -- 89
2020-01-25 15:00:00 8.9 4 Sur 18 Sur 0 -- -- 91
2020-01-25 14:00:00 9 9 Sur 19 Sudoeste 0 -- -- 90
2020-01-25 13:00:00 9.2 12 Sur 17 Sur 0 -- -- 87
2020-01-25 12:00:00 8.2 0 Calma 4 Norte 0 -- -- 94
2020-01-25 11:00:00 7.5 2 Norte 6 Norte 0 -- -- 97
2020-01-25 10:00:00 7 0 Calma 3 Noroeste 0 -- -- 99
2020-01-25 09:00:00 6.9 0 Calma 2 Nordeste 0 -- -- 99
2020-01-25 08:00:00 6.8 0 Calma 6 Noroeste 0 -- -- 99
2020-01-25 07:00:00 6.7 0 Calma 2 Oeste 0 -- -- 99
2020-01-25 06:00:00 6.7 0 Calma 5 Este 0 -- -- 98
2020-01-25 05:00:00 6.7 0 Calma 5 Este 0 -- -- 98
2020-01-25 04:00:00 6.8 0 Calma 5 Sudeste 0 -- -- 98
2020-01-25 03:00:00 6.9 0 Calma 4 Sudeste 0 -- -- 98
2020-01-25 02:00:00 7 0 Calma 3 Sur 0 -- -- 98
2020-01-25 01:00:00 7.1 0 Calma 3 Este 0 -- -- 98
2020-01-25 00:00:00 7.2 0 Calma 4 Norte 0 -- -- 97
2020-01-24 23:00:00 7.3 0 Calma 5 Sur 0 -- -- 97
2020-01-24 22:00:00 7.3 0 Calma 10 Sudoeste 0 -- -- 96
2020-01-24 21:00:00 7.6 3 Sudeste 8 Sur 0 -- -- 95
2020-01-24 20:00:00 8.3 0 Calma 12 Sur 0 -- -- 92
2020-01-24 19:00:00 8.7 7 Sur 12 Sur 0 -- -- 89
2020-01-24 18:00:00 10 0 Calma 4 Sudeste 0 -- -- 84
2020-01-24 17:00:00 10.8 2 Sudeste 7 Sur 0.2 -- -- 73
2020-01-24 16:00:00 10.8 2 Sur 4 Sur 0 -- -- 74
2020-01-24 15:00:00 11 3 Sudoeste 7 Norte 0 -- -- 74
2020-01-24 14:00:00 10.2 3 Noroeste 8 Noroeste 0 -- -- 74
2020-01-24 13:00:00 9.5 2 Noroeste 5 Noroeste 0 -- -- 78
2020-01-24 12:00:00 8.6 2 Noroeste 12 Noroeste 0 -- -- 85
2020-01-24 11:00:00 7 6 Noroeste 10 Norte 0 -- -- 90
2020-01-24 10:00:00 5.7 4 Noroeste 8 Noroeste 0 -- -- 97
2020-01-24 09:00:00 5.5 0 Calma 9 Noroeste 0 -- -- 97
2020-01-24 08:00:00 5.7 4 Noroeste 8 Noroeste 0 -- -- 97
2020-01-24 07:00:00 6 2 Noroeste 8 Norte 0 -- -- 98
2020-01-24 06:00:00 6.3 0 Calma 5 Noroeste 0 -- -- 98
2020-01-24 05:00:00 6.5 0 Calma 5 Noroeste 0 -- -- 99
2020-01-24 04:00:00 6.6 0 Calma 5 Noroeste 0 -- -- 99
2020-01-24 03:00:00 6.7 0 Calma 5 Noroeste 1.2 -- -- 98
2020-01-24 02:00:00 6.8 3 Norte 9 Norte 3.2 -- -- 98
2020-01-24 01:00:00 7 0 Calma 4 Sur 0.2 -- -- 98
2020-01-24 00:00:00 7.1 0 Calma 4 Sudeste 0 -- -- 98
2020-01-23 23:00:00 7.2 0 Calma 4 Sudoeste 1 -- -- 97
2020-01-23 22:00:00 7.2 0 Calma 6 Sur 1.4 -- -- 97
2020-01-23 21:00:00 7.3 3 Sur 10 Sur 0 -- -- 96
2020-01-23 20:00:00 7.4 4 Sur 11 Sur 0 -- -- 94
2020-01-23 19:00:00 7.7 4 Sur 14 Sur 0 -- -- 91
2020-01-23 18:00:00 8 8 Sur 17 Sur 0 -- -- 88
2020-01-23 17:00:00 8.4 10 Sur 16 Sur 0 -- -- 85
2020-01-23 16:00:00 9.2 4 Sur 9 Sur 0 -- -- 79
2020-01-23 15:00:00 9 6 Sur 15 Sur 0 -- -- 78
2020-01-23 14:00:00 9.4 6 Sur 13 Sur 0 -- -- 76
2020-01-23 13:00:00 8.1 3 Noroeste 5 Noroeste 0 -- -- 80
2020-01-23 12:00:00 6.4 0 Calma 3 Noroeste 0 -- -- 82
2020-01-23 11:00:00 4.1 0 Calma 9 Noroeste 0 -- -- 92
2020-01-23 10:00:00 2.2 3 Noroeste 8 Noroeste 0 -- -- 98
2020-01-23 09:00:00 1.4 2 Noroeste 5 Norte 0 -- -- 98
2020-01-23 08:00:00 1.5 0 Calma 6 Noroeste 0 -- -- 97
2020-01-23 07:00:00 2.1 5 Noroeste 9 Noroeste 0 -- -- 98
2020-01-23 06:00:00 2.4 4 Noroeste 9 Noroeste 0 -- -- 97
2020-01-23 05:00:00 2.5 0 Calma 7 Norte 0.2 -- -- 97
2020-01-23 04:00:00 3 3 Norte 8 Noroeste 0 -- -- 97
2020-01-23 03:00:00 3.4 3 Noroeste 8 Noroeste 0 -- -- 97
2020-01-23 02:00:00 3.5 3 Norte 8 Noroeste 0 -- -- 97
2020-01-23 01:00:00 3.5 0 Calma 6 Noroeste 0 -- -- 97
2020-01-23 00:00:00 4.2 0 Calma 11 Norte 0 -- -- 95
2020-01-22 23:00:00 4.9 10 Noroeste 18 Noroeste 1.8 -- -- 94
2020-01-22 22:00:00 5.4 6 Oeste 18 Oeste 0 -- -- 89
2020-01-22 21:00:00 5.4 8 Noroeste 16 Noroeste 0.4 -- -- 90
2020-01-22 20:00:00 5.7 11 Noroeste 27 Sur 2.4 -- -- 91
2020-01-22 19:00:00 7.6 9 Noroeste 14 Noroeste 0.2 -- -- 93
2020-01-22 18:00:00 8.2 4 Norte 7 Norte 1 -- -- 93
2020-01-22 17:00:00 9.6 0 Calma 5 Sudeste 0 -- -- 84
2020-01-22 16:00:00 9.7 3 Sudeste 13 Sur 0 -- -- 82
2020-01-22 15:00:00 10.1 10 Sur 23 Sur 0 -- -- 79
2020-01-22 14:00:00 10.7 17 Sur 26 Sur 0 -- -- 75
2020-01-22 13:00:00 9.5 3 Sudoeste 7 Oeste 0 -- -- 85
2020-01-22 12:00:00 7.2 0 Calma 5 Noroeste 0 -- -- 91
2020-01-22 11:00:00 5 0 Calma 3 Noroeste 0.2 -- -- 96
2020-01-22 10:00:00 4 3 Noroeste 8 Noroeste 0 -- -- 97
2020-01-22 09:00:00 3.6 4 Noroeste 9 Noroeste 0 -- -- 98
2020-01-22 08:00:00 3.5 0 Calma 6 Noroeste 0 -- -- 98
2020-01-22 07:00:00 3.7 0 Calma 7 Noroeste 0 -- -- 98
2020-01-22 06:00:00 4 0 Calma 8 Noroeste 0 -- -- 98
2020-01-22 05:00:00 4.6 0 Calma 9 Norte 0 -- -- 98
2020-01-22 04:00:00 4.9 0 Calma 6 Noroeste 0 -- -- 98
2020-01-22 03:00:00 5 0 Calma 5 Noroeste 0 -- -- 97
2020-01-22 02:00:00 5 3 Noroeste 8 Oeste 0.6 -- -- 97
2020-01-22 01:00:00 4.9 4 Noroeste 12 Noroeste 1.6 -- -- 97
2020-01-22 00:00:00 4.9 2 Noroeste 14 Noroeste 2 -- -- 96
2020-01-21 23:00:00 5.1 5 Norte 14 Noroeste 0.2 -- -- 96
2020-01-21 22:00:00 5 4 Noroeste 9 Norte 0 -- -- 97
2020-01-21 21:00:00 4.6 3 Noroeste 12 Oeste 0.2 -- -- 96
2020-01-21 20:00:00 4.5 4 Norte 14 Noroeste 0.4 -- -- 97
2020-01-21 19:00:00 4.5 4 Norte 12 Noroeste 2 -- -- 98
2020-01-21 18:00:00 4.2 4 Noroeste 22 Noroeste 6 -- -- 98
2020-01-21 17:00:00 3.9 11 Norte 21 Noroeste 5 -- -- 96
2020-01-21 16:00:00 5 11 Norte 22 Noroeste 5.6 -- -- 93
2020-01-21 15:00:00 6.9 16 Sur 37 Sur 8.4 -- -- 91
2020-01-21 14:00:00 8.8 11 Sur 39 Sudeste 2.2 -- -- 97
2020-01-21 13:00:00 5.3 5 Noroeste 14 Noroeste 5.2 -- -- 95
2020-01-21 12:00:00 5.2 4 Sur 14 Sudoeste 2 -- -- 93
2020-01-21 11:00:00 4.2 5 Sur 22 Sur 1.6 -- -- 92
2020-01-21 10:00:00 4.1 5 Oeste 23 Sudeste 3.2 -- -- 90
2020-01-21 09:00:00 4.2 5 Sudoeste 18 Sur 4.4 -- -- 90
2020-01-21 08:00:00 4.5 5 Sudoeste 16 Sudoeste 1.2 -- -- 88
2020-01-21 07:00:00 4.5 4 Sudoeste 21 Noroeste 2.4 -- -- 89
2020-01-21 06:00:00 4.4 8 Sudoeste 27 Norte 1.2 -- -- 88
2020-01-21 05:00:00 4.4 6 Oeste 26 Noroeste 1.2 -- -- 84
2020-01-21 04:00:00 4.2 6 Sudoeste 28 Sur 1.8 -- -- 87
2020-01-21 03:00:00 4.1 9 Sudoeste 30 Norte 4 -- -- 86
2020-01-21 02:00:00 3.6 5 Sur 22 Sudeste 3.6 -- -- 88
2020-01-21 01:00:00 4.5 10 Norte 23 Sudoeste 1 -- -- 83
2020-01-21 00:00:00 4.7 9 Sudoeste 30 Sur 0.4 -- -- 79
2020-01-20 23:00:00 4.8 12 Sudoeste 33 Sudeste 0.4 -- -- 80
2020-01-20 22:00:00 4.2 10 Sudoeste 29 Sur 0.8 -- -- 83
2020-01-20 21:00:00 4.7 10 Sudoeste 42 Sur 0 -- -- 78
2020-01-20 20:00:00 4.8 12 Sur 46 Norte 0.2 -- -- 76
2020-01-20 19:00:00 4.8 9 Norte 33 Nordeste 0.6 -- -- 79
2020-01-20 18:00:00 4.5 9 Nordeste 32 Sur 0.4 -- -- 81
2020-01-20 17:00:00 4.1 9 Sudoeste 31 Sudeste 0.4 -- -- 83
2020-01-20 16:00:00 3.7 6 Norte 34 Sur 0.8 -- -- 84
2020-01-20 15:00:00 3.8 8 Norte 33 Norte 0.6 -- -- 82
2020-01-20 14:00:00 4.1 10 Norte 30 Norte 0 -- -- 77
2020-01-20 13:00:00 5.1 4 Nordeste 30 Norte 0 -- -- 70
2020-01-20 12:00:00 4.9 12 Norte 29 Norte 0 -- -- 67
2020-01-20 11:00:00 4.5 12 Norte 32 Norte 0 -- -- 67
2020-01-20 10:00:00 4.6 6 Noroeste 32 Sudeste 0 -- -- 63
2020-01-20 09:00:00 4.4 6 Noroeste 30 Sudeste 0 -- -- 63
2020-01-20 08:00:00 4.4 8 Sudoeste 30 Sur 0 -- -- 62
2020-01-20 07:00:00 4.4 3 Sudoeste 19 Noroeste 0 -- -- 64
2020-01-20 06:00:00 4.1 7 Sudoeste 24 Nordeste 0 -- -- 62
2020-01-20 05:00:00 3.9 8 Norte 27 Norte 0 -- -- 62
2020-01-20 04:00:00 3.1 7 Sudoeste 31 Noroeste 0 -- -- 70
2020-01-20 03:00:00 4.2 5 Sudeste 28 Sur 0 -- -- 59
2020-01-20 02:00:00 5.3 9 Sudoeste 27 Sur 0 -- -- 55
2020-01-20 01:00:00 5.4 9 Sur 22 Sur 0 -- -- 54
2020-01-20 00:00:00 5.2 3 Nordeste 17 Noroeste 0 -- -- 57
2020-01-19 23:00:00 5.7 8 Noroeste 21 Norte 0 -- -- 67
2020-01-19 22:00:00 5.7 5 Noroeste 16 Noroeste 0 -- -- 59
2020-01-19 21:00:00 5.4 0 Calma 10 Noroeste 0 -- -- 69
2020-01-19 20:00:00 5.5 2 Noroeste 10 Sudoeste 0 -- -- 74
2020-01-19 19:00:00 4.5 0 Calma 15 Sur 0 -- -- 90
2020-01-19 18:00:00 5.2 0 Calma 10 Sudoeste 0 -- -- 83
2020-01-19 17:00:00 4.7 5 Sur 13 Sur 0.2 -- -- 87
2020-01-19 16:00:00 4.6 4 Sur 18 Sudoeste 0 -- -- 89
2020-01-19 15:00:00 4.6 7 Sur 27 Oeste 0.8 -- -- 87
2020-01-19 14:00:00 4 2 Norte 6 Oeste 1.2 -- -- 95
2020-01-19 13:00:00 3.8 3 Noroeste 13 Noroeste 3.2 -- -- 93
2020-01-19 12:00:00 4.2 3 Noroeste 8 Norte 3 -- -- 93
2020-01-19 11:00:00 4.5 3 Oeste 10 Noroeste 1 -- -- 91
2020-01-19 10:00:00 4.7 2 Noroeste 10 Nordeste 1.6 -- -- 90
2020-01-19 09:00:00 5.9 6 Noroeste 18 Oeste 0 -- -- 70
2020-01-19 08:00:00 5.9 8 Norte 22 Noroeste 0 -- -- 69
2020-01-19 07:00:00 6.5 12 Noroeste 26 Noroeste 0 -- -- 67
2020-01-19 06:00:00 7.1 15 Noroeste 31 Noroeste 0 -- -- 69
2020-01-19 05:00:00 7.7 12 Noroeste 24 Noroeste 0 -- -- 72
2020-01-19 04:00:00 8.3 12 Noroeste 31 Noroeste 0 -- -- 70
2020-01-19 03:00:00 7.9 16 Norte 26 Norte 0 -- -- 74
2020-01-19 02:00:00 6.5 4 Norte 17 Noroeste 0 -- -- 94
2020-01-19 01:00:00 6 2 Sudoeste 13 Oeste 0.4 -- -- 92
2020-01-19 00:00:00 6.3 2 Noroeste 5 Noroeste 0 -- -- 85
2020-01-18 23:00:00 6.5 0 Calma 5 Norte 0 -- -- 84
2020-01-18 22:00:00 6.3 0 Calma 7 Noroeste 0 -- -- 85
2020-01-18 21:00:00 6.5 0 Calma 5 Norte 0 -- -- 84
2020-01-18 20:00:00 7.5 0 Calma 7 Nordeste 0 -- -- 79
2020-01-18 19:00:00 9.6 0 Calma 14 Oeste 0 -- -- 70
2020-01-18 18:00:00 11.6 4 Oeste 19 Noroeste 0 -- -- 64
2020-01-18 17:00:00 12.3 4 Noroeste 28 Noroeste 0 -- -- 60
2020-01-18 16:00:00 12.9 12 Noroeste 27 Noroeste 0 -- -- 56
2020-01-18 15:00:00 13.4 11 Noroeste 26 Noroeste 0 -- -- 54
2020-01-18 14:00:00 12.8 15 Noroeste 27 Oeste 0 -- -- 55
2020-01-18 13:00:00 9.8 0 Calma 6 Noroeste 0 -- -- 59
2020-01-18 12:00:00 7.4 0 Calma 6 Noroeste 0 -- -- 66
2020-01-18 11:00:00 6.2 3 Norte 8 Este 0 -- -- 69
2020-01-18 10:00:00 5.4 4 Sudoeste 13 Oeste 0 -- -- 70
2020-01-18 09:00:00 4.8 2 Oeste 10 Norte 0 -- -- 72
2020-01-18 08:00:00 4.7 2 Este 9 Noroeste 0 -- -- 71
2020-01-18 07:00:00 5 8 Norte 15 Noroeste 0 -- -- 70
2020-01-18 06:00:00 5.1 4 Norte 14 Noroeste 0 -- -- 69
2020-01-18 05:00:00 5.6 2 Norte 12 Noroeste 0 -- -- 70
2020-01-18 04:00:00 6.4 6 Noroeste 14 Noroeste 0 -- -- 65
2020-01-18 03:00:00 7.6 7 Norte 25 Noroeste 0 -- -- 60
2020-01-18 02:00:00 7.6 12 Norte 26 Noroeste 0 -- -- 60
2020-01-18 01:00:00 7.4 12 Noroeste 26 Noroeste 0 -- -- 62
2020-01-18 00:00:00 6.5 0 Calma 14 Norte 0 -- -- 64
2020-01-17 23:00:00 7.5 5 Oeste 17 Noroeste 0 -- -- 60
2020-01-17 22:00:00 8.1 5 Sudeste 11 Noroeste 0 -- -- 59
2020-01-17 21:00:00 10.6 10 Noroeste 26 Noroeste 0 -- -- 54
2020-01-17 20:00:00 11 9 Noroeste 24 Noroeste 0 -- -- 49
2020-01-17 19:00:00 11.6 12 Noroeste 25 Noroeste 0 -- -- 49
2020-01-17 18:00:00 12.3 13 Noroeste 37 Norte 0 -- -- 49
2020-01-17 17:00:00 13 15 Noroeste 38 Noroeste 0 -- -- 48
2020-01-17 16:00:00 13.4 17 Noroeste 43 Noroeste 0 -- -- 49
2020-01-17 15:00:00 13.6 22 Noroeste 47 Noroeste 0 -- -- 47
2020-01-17 14:00:00 13.8 15 Noroeste 39 Oeste 0 -- -- 47
2020-01-17 13:00:00 13.2 9 Oeste 31 Noroeste 0 -- -- 48
2020-01-17 12:00:00 12.4 15 Norte 35 Noroeste 0 -- -- 51
2020-01-17 11:00:00 11.3 13 Noroeste 21 Noroeste 0 -- -- 54
2020-01-17 10:00:00 10 10 Noroeste 26 Noroeste 0 -- -- 58
2020-01-17 09:00:00 5.7 3 Norte 12 Norte 0 -- -- 77
2020-01-17 08:00:00 4.6 3 Norte 9 Norte 0 -- -- 88
2020-01-17 07:00:00 3.8 0 Calma 9 Noroeste 0 -- -- 85
2020-01-17 06:00:00 3.6 2 Noroeste 8 Norte 0 -- -- 90
2020-01-17 05:00:00 3.2 2 Sur 5 Nordeste 0 -- -- 88
2020-01-17 04:00:00 3.9 2 Noroeste 10 Oeste 0 -- -- 85
2020-01-17 03:00:00 4.2 4 Oeste 12 Noroeste 0 -- -- 85
2020-01-17 02:00:00 4.5 6 Oeste 10 Oeste 0 -- -- 86
2020-01-17 01:00:00 4.7 4 Noroeste 14 Noroeste 0 -- -- 85
2020-01-17 00:00:00 5.2 5 Noroeste 13 Noroeste 0 -- -- 85
2020-01-16 23:00:00 6 5 Noroeste 14 Noroeste 0 -- -- 84
2020-01-16 22:00:00 6.3 3 Noroeste 7 Norte 0 -- -- 85
2020-01-16 21:00:00 6.8 0 Calma 6 Norte 0 -- -- 85
2020-01-16 20:00:00 8.1 3 Norte 6 Norte 0 -- -- 82
2020-01-16 19:00:00 10 3 Sudeste 12 Sur 0 -- -- 73
2020-01-16 18:00:00 11.8 5 Sudeste 18 Sur 0 -- -- 66
2020-01-16 17:00:00 14.1 10 Sur 16 Sudoeste 0 -- -- 58
2020-01-16 16:00:00 15.5 4 Sur 20 Sur 0 -- -- 52
2020-01-16 15:00:00 16.2 9 Sur 17 Sur 0 -- -- 51
2020-01-16 14:00:00 15.2 6 Sur 14 Sur 0 -- -- 53
2020-01-16 13:00:00 11.5 2 Noroeste 4 Noroeste 0 -- -- 59
2020-01-16 12:00:00 8.9 0 Calma 3 Noroeste 0 -- -- 67
2020-01-16 11:00:00 6.2 0 Calma 6 Noroeste 0 -- -- 76
2020-01-16 10:00:00 3.6 3 Noroeste 14 Noroeste 0 -- -- 86
2020-01-16 09:00:00 2.9 5 Noroeste 13 Noroeste 0 -- -- 89
2020-01-16 08:00:00 3.4 9 Noroeste 15 Noroeste 0 -- -- 88
2020-01-16 07:00:00 3.8 4 Noroeste 14 Noroeste 0 -- -- 88
2020-01-16 06:00:00 4.1 5 Noroeste 12 Noroeste 0 -- -- 89
2020-01-16 05:00:00 4.2 0 Calma 8 Noroeste 0 -- -- 87
2020-01-16 04:00:00 4.9 3 Noroeste 7 Norte 0 -- -- 85
2020-01-16 03:00:00 5.8 4 Oeste 19 Noroeste 0 -- -- 81
2020-01-16 02:00:00 6.1 7 Noroeste 14 Noroeste 0 -- -- 81
2020-01-16 01:00:00 6.6 8 Noroeste 13 Oeste 0 -- -- 79
2020-01-16 00:00:00 6.4 3 Norte 8 Norte 0 -- -- 80
2020-01-15 23:00:00 6.4 3 Noroeste 8 Noroeste 0 -- -- 79
2020-01-15 22:00:00 6.1 0 Calma 6 Norte 0 -- -- 77
2020-01-15 21:00:00 6.2 0 Calma 5 Nordeste 0 -- -- 77
2020-01-15 20:00:00 7.2 2 Nordeste 5 Sudeste 0 -- -- 73
2020-01-15 19:00:00 9.4 3 Sudoeste 15 Sudeste 0 -- -- 63
2020-01-15 18:00:00 11 8 Sudeste 17 Este 0 -- -- 57
2020-01-15 17:00:00 13.5 5 Sudeste 19 Oeste 0 -- -- 46
2020-01-15 16:00:00 14.9 6 Noroeste 23 Oeste 0 -- -- 43
2020-01-15 15:00:00 15.7 5 Oeste 13 Noroeste 0 -- -- 38
2020-01-15 14:00:00 13.9 11 Noroeste 26 Noroeste 0 -- -- 41
2020-01-15 13:00:00 12.8 10 Noroeste 19 Noroeste 0 -- -- 44
2020-01-15 12:00:00 7.4 0 Calma 6 Norte 0 -- -- 66
2020-01-15 11:00:00 5.2 0 Calma 4 Nordeste 0 -- -- 72
2020-01-15 10:00:00 3.2 2 Noroeste 6 Noroeste 0 -- -- 79
2020-01-15 09:00:00 2.8 0 Calma 6 Noroeste 0 -- -- 81
2020-01-15 08:00:00 2.9 0 Calma 3 Sur 0 -- -- 79
2020-01-15 07:00:00 3.1 2 Norte 7 Norte 0 -- -- 78
2020-01-15 06:00:00 1.6 3 Norte 8 Norte 0 -- -- 81
2020-01-15 05:00:00 -0.5 0 Calma 4 Nordeste 0 -- -- 85
2020-01-15 04:00:00 -0.5 0 Calma 2 Nordeste 0 -- -- 83
2020-01-15 03:00:00 -0.2 0 Calma 3 Noroeste 0 -- -- 79
2020-01-15 02:00:00 0.7 0 Calma 9 Oeste 0 -- -- 73
2020-01-15 01:00:00 1.3 3 Noroeste 8 Noroeste 0 -- -- 72
2020-01-15 00:00:00 1.9 0 Calma 15 Noroeste 0 -- -- 73
2020-01-14 23:00:00 2.4 7 Noroeste 12 Noroeste 0 -- -- 76
2020-01-14 22:00:00 3 3 Noroeste 6 Oeste 0 -- -- 76
2020-01-14 21:00:00 3.7 0 Calma 5 Norte 0 -- -- 80
2020-01-14 20:00:00 5.1 4 Norte 6 Norte 0 -- -- 77
2020-01-14 19:00:00 7.3 3 Sudeste 9 Sudeste 0 -- -- 72
2020-01-14 18:00:00 8.9 5 Sur 14 Sur 0 -- -- 59
2020-01-14 17:00:00 10.6 6 Sur 19 Sudoeste 0 -- -- 47
2020-01-14 16:00:00 12.6 11 Sur 19 Sur 0 -- -- 36
2020-01-14 15:00:00 14.7 9 Sur 18 Sur 0 -- -- 29
2020-01-14 14:00:00 13.4 8 Sur 12 Sur 0 -- -- 28
2020-01-14 13:00:00 9.8 2 Noroeste 3 Norte 0 -- -- 31
2020-01-14 12:00:00 6.8 0 Calma 3 Oeste 0 -- -- 35
2020-01-14 11:00:00 3.3 0 Calma 9 Noroeste 0 -- -- 43
2020-01-14 10:00:00 0.1 0 Calma 6 Noroeste 0 -- -- 54
2020-01-14 09:00:00 -1.3 0 Calma 6 Noroeste 0 -- -- 59
2020-01-14 08:00:00 -0.9 3 Noroeste 10 Noroeste 0 -- -- 57
2020-01-14 07:00:00 -1 3 Noroeste 8 Oeste 0 -- -- 59
2020-01-14 06:00:00 -1 0 Calma 9 Noroeste 0 -- -- 62
2020-01-14 05:00:00 -0.6 3 Noroeste 5 Norte 0 -- -- 65
2020-01-14 04:00:00 0.3 4 Noroeste 12 Noroeste 0 -- -- 62
2020-01-14 03:00:00 0.7 2 Oeste 14 Noroeste 0 -- -- 59
2020-01-14 02:00:00 1.7 5 Norte 12 Norte 0 -- -- 59
2020-01-14 01:00:00 2.2 4 Noroeste 14 Norte 0 -- -- 64
2020-01-14 00:00:00 2.6 5 Noroeste 10 Noroeste 0 -- -- 68
2020-01-13 23:00:00 3.6 6 Noroeste 13 Noroeste 0 -- -- 67
2020-01-13 22:00:00 4.2 3 Noroeste 6 Noroeste 0 -- -- 72
2020-01-13 21:00:00 4.9 2 Noroeste 5 Noroeste 0 -- -- 71
2020-01-13 20:00:00 5.8 2 Norte 5 Norte 0 -- -- 69
2020-01-13 19:00:00 7.8 0 Calma 8 Sudeste 0 -- -- 57
2020-01-13 18:00:00 9.8 3 Sudeste 11 Sudeste 0 -- -- 51
2020-01-13 17:00:00 11.6 3 Sur 10 Sur 0 -- -- 45
2020-01-13 16:00:00 12.9 2 Sudoeste 14 Sur 0 -- -- 39
2020-01-13 15:00:00 13.4 10 Sur 17 Sudoeste 0 -- -- 35
2020-01-13 14:00:00 12.2 0 Calma 4 Norte 0 -- -- 30
2020-01-13 13:00:00 9.4 2 Noroeste 4 Noroeste 0 -- -- 37
2020-01-13 12:00:00 5.9 0 Calma 5 Noroeste 0 -- -- 42
2020-01-13 11:00:00 2.7 2 Noroeste 6 Noroeste 0 -- -- 49
2020-01-13 10:00:00 0 3 Noroeste 14 Noroeste 0 -- -- 61
2020-01-13 09:00:00 -1.2 6 Noroeste 13 Noroeste 0 -- -- 64
2020-01-13 08:00:00 -1 5 Noroeste 18 Noroeste 0 -- -- 66
2020-01-13 07:00:00 -0.6 5 Noroeste 16 Norte 0 -- -- 65
2020-01-13 06:00:00 -0.3 10 Noroeste 15 Noroeste 0 -- -- 64
2020-01-13 05:00:00 -0.2 6 Noroeste 18 Noroeste 0 -- -- 66
2020-01-13 04:00:00 0.2 12 Noroeste 17 Norte 0 -- -- 62
2020-01-13 03:00:00 0.4 10 Noroeste 15 Noroeste 0 -- -- 62
2020-01-13 02:00:00 1 7 Noroeste 15 Noroeste 0 -- -- 64
2020-01-13 01:00:00 1 8 Norte 15 Norte 0 -- -- 65
2020-01-13 00:00:00 1.6 6 Noroeste 12 Noroeste 0 -- -- 68
2020-01-12 23:00:00 2.4 10 Noroeste 15 Noroeste 0 -- -- 68
2020-01-12 22:00:00 3 4 Noroeste 10 Noroeste 0 -- -- 75
2020-01-12 21:00:00 3.9 4 Noroeste 9 Norte 0 -- -- 73
2020-01-12 20:00:00 4.7 2 Noroeste 7 Noroeste 0 -- -- 74
2020-01-12 19:00:00 6.4 0 Calma 8 Sur 0 -- -- 73
2020-01-12 18:00:00 8.1 3 Sur 13 Sudoeste 0 -- -- 66
2020-01-12 17:00:00 10 5 Sur 14 Sur 0 -- -- 54
2020-01-12 16:00:00 11.3 9 Sur 23 Sur 0 -- -- 44
2020-01-12 15:00:00 12.9 14 Sur 27 Sur 0 -- -- 36
2020-01-12 14:00:00 13.4 12 Sur 17 Sur 0 -- -- 30
2020-01-12 13:00:00 10 0 Calma 4 Sudoeste 0 -- -- 33
2020-01-12 12:00:00 6.1 0 Calma 4 Noroeste 0 -- -- 51
2020-01-12 11:00:00 3.5 2 Norte 5 Noroeste 0 -- -- 52
2020-01-12 10:00:00 0.2 0 Calma 5 Noroeste 0 -- -- 65
2020-01-12 09:00:00 -0.9 4 Noroeste 9 Oeste 0 -- -- 70
2020-01-12 08:00:00 -1 3 Noroeste 9 Oeste 0 -- -- 72
2020-01-12 07:00:00 -0.5 2 Oeste 10 Noroeste 0 -- -- 70
2020-01-12 06:00:00 -0.5 4 Noroeste 9 Oeste 0 -- -- 73
2020-01-12 05:00:00 -0.3 4 Noroeste 13 Noroeste 0 -- -- 73
2020-01-12 04:00:00 -0.3 4 Noroeste 10 Oeste 0 -- -- 76
2020-01-12 03:00:00 0 3 Noroeste 10 Oeste 0 -- -- 75
2020-01-12 02:00:00 0.5 3 Norte 6 Noroeste 0 -- -- 78
2020-01-12 01:00:00 0.5 0 Calma 2 Noroeste 0 -- -- 77
2020-01-12 00:00:00 1.2 0 Calma 9 Oeste 0 -- -- 74
2020-01-11 23:00:00 2.4 4 Noroeste 9 Noroeste 0 -- -- 71
2020-01-11 22:00:00 3.4 4 Noroeste 12 Norte 0 -- -- 73
2020-01-11 21:00:00 3.9 4 Norte 11 Noroeste 0 -- -- 76
2020-01-11 20:00:00 4.6 0 Calma 5 Norte 0 -- -- 76
2020-01-11 19:00:00 6.2 3 Norte 7 Norte 0 -- -- 71
2020-01-11 18:00:00 8.2 3 Sudeste 17 Sur 0 -- -- 61
2020-01-11 17:00:00 10.1 13 Sur 27 Sur 0 -- -- 52
2020-01-11 16:00:00 12 14 Sur 24 Sur 0 -- -- 43
2020-01-11 15:00:00 13.7 4 Sudoeste 10 Sur 0 -- -- 37
2020-01-11 14:00:00 13.1 5 Sur 8 Sur 0 -- -- 42
2020-01-11 13:00:00 11.5 4 Sur 6 Sur 0 -- -- 49
2020-01-11 12:00:00 8.6 2 Oeste 9 Noroeste 0 -- -- 56
2020-01-11 11:00:00 5.8 0 Calma 8 Noroeste 0 -- -- 65
2020-01-11 10:00:00 3.1 3 Noroeste 11 Noroeste 0 -- -- 77
2020-01-11 09:00:00 2.4 5 Norte 10 Noroeste 0 -- -- 81
2020-01-11 08:00:00 2.9 7 Noroeste 15 Noroeste 0 -- -- 79
2020-01-11 07:00:00 3.7 8 Noroeste 18 Noroeste 0 -- -- 77
2020-01-11 06:00:00 4.4 9 Noroeste 27 Noroeste 0 -- -- 73
2020-01-11 05:00:00 5 14 Noroeste 23 Noroeste 0 -- -- 72
2020-01-11 04:00:00 5.2 11 Noroeste 27 Norte 0 -- -- 71
2020-01-11 03:00:00 5 12 Noroeste 28 Norte 0 -- -- 73
2020-01-11 02:00:00 4.6 11 Noroeste 21 Noroeste 0 -- -- 73
2020-01-11 01:00:00 4.1 6 Noroeste 10 Noroeste 0 -- -- 79
2020-01-11 00:00:00 5.1 6 Norte 10 Noroeste 0 -- -- 73
2020-01-10 23:00:00 4.2 2 Norte 4 Norte 0 -- -- 79
2020-01-10 22:00:00 4.8 0 Calma 3 Nordeste 0 -- -- 76
2020-01-10 21:00:00 5.1 0 Calma 8 Noroeste 0 -- -- 72
2020-01-10 20:00:00 6.6 5 Noroeste 11 Noroeste 0 -- -- 71
2020-01-10 19:00:00 7.5 5 Noroeste 11 Noroeste 0 -- -- 65
2020-01-10 18:00:00 9.2 11 Noroeste 22 Noroeste 0 -- -- 56
2020-01-10 17:00:00 9.9 15 Noroeste 27 Noroeste 0 -- -- 52
2020-01-10 16:00:00 10.4 3 Oeste 11 Nordeste 0 -- -- 51
2020-01-10 15:00:00 10.7 2 Sudoeste 26 Norte 0 -- -- 48
2020-01-10 14:00:00 10.5 7 Norte 21 Noroeste 0 -- -- 48
2020-01-10 13:00:00 11.4 7 Oeste 23 Noroeste 0 -- -- 43
2020-01-10 12:00:00 10.4 11 Noroeste 38 Noroeste 0 -- -- 48
2020-01-10 11:00:00 9.7 17 Noroeste 54 Oeste 0 -- -- 50
2020-01-10 10:00:00 8.5 17 Noroeste 28 Noroeste 0 -- -- 57
2020-01-10 09:00:00 7.6 13 Norte 23 Norte 0 -- -- 65
2020-01-10 08:00:00 8.4 12 Noroeste 31 Noroeste 0 -- -- 65
2020-01-10 07:00:00 8.8 21 Noroeste 33 Noroeste 0 -- -- 67
2020-01-10 06:00:00 8.3 10 Noroeste 17 Noroeste 0 -- -- 73
2020-01-10 05:00:00 4.3 0 Calma 8 Nordeste 0 -- -- 94
2020-01-10 04:00:00 3.9 2 Norte 5 Norte 0 -- -- 95
2020-01-10 03:00:00 3.5 2 Norte 4 Norte 0 -- -- 95
2020-01-10 02:00:00 3.8 2 Norte 4 Norte 0 -- -- 95
2020-01-10 01:00:00 3.8 0 Calma 2 Sudeste 0 -- -- 93
2020-01-10 00:00:00 4.1 0 Calma 4 Noroeste 0 -- -- 93
2020-01-09 23:00:00 4.8 0 Calma 4 Noroeste 0 -- -- 92
2020-01-09 22:00:00 5.2 0 Calma 9 Noroeste 0 -- -- 92
2020-01-09 21:00:00 5.6 2 Norte 4 Norte 0 -- -- 93
2020-01-09 20:00:00 6.5 0 Calma 7 Sudeste 0 -- -- 90
2020-01-09 19:00:00 7.8 4 Sudeste 9 Sudoeste 0 -- -- 88
2020-01-09 18:00:00 9.3 4 Sur 13 Sur 0 -- -- 82
2020-01-09 17:00:00 10.8 5 Sudeste 14 Sur 0 -- -- 75
2020-01-09 16:00:00 11.6 8 Sur 19 Sur 0 -- -- 66
2020-01-09 15:00:00 13.6 12 Sur 22 Sudoeste 0 -- -- 56
2020-01-09 14:00:00 13.4 13 Sur 20 Sur 0 -- -- 50
2020-01-09 13:00:00 10.1 0 Calma 4 Norte 0 -- -- 59
2020-01-09 12:00:00 7.4 0 Calma 4 Oeste 0 -- -- 64
2020-01-09 11:00:00 4.5 2 Noroeste 6 Noroeste 0 -- -- 78
2020-01-09 10:00:00 2 0 Calma 12 Noroeste 0 -- -- 89
2020-01-09 09:00:00 1.2 5 Noroeste 13 Noroeste 0 -- -- 92
2020-01-09 08:00:00 1.4 5 Noroeste 14 Oeste 0 -- -- 92
2020-01-09 07:00:00 1.6 6 Noroeste 15 Noroeste 0 -- -- 93
2020-01-09 06:00:00 1.7 6 Noroeste 15 Noroeste 0 -- -- 93
2020-01-09 05:00:00 2.1 5 Noroeste 14 Noroeste 0 -- -- 93
2020-01-09 04:00:00 2.5 4 Noroeste 13 Norte 0 -- -- 94
2020-01-09 03:00:00 2.8 7 Noroeste 13 Noroeste 0 -- -- 94
2020-01-09 02:00:00 3.2 4 Norte 8 Noroeste 0 -- -- 94
2020-01-09 01:00:00 3.5 3 Noroeste 8 Noroeste 0 -- -- 94
2020-01-09 00:00:00 4 3 Noroeste 11 Noroeste 0 -- -- 94
2020-01-08 23:00:00 4.7 4 Oeste 8 Noroeste 0 -- -- 94
2020-01-08 22:00:00 5 2 Oeste 4 Oeste 0 -- -- 95
2020-01-08 21:00:00 5.6 0 Calma 4 Noroeste 0 -- -- 93
2020-01-08 20:00:00 6.5 3 Norte 5 Norte 0 -- -- 90
2020-01-08 19:00:00 7.6 4 Norte 6 Sur 0 -- -- 88
2020-01-08 18:00:00 9.1 3 Sudeste 7 Sur 0 -- -- 81
2020-01-08 17:00:00 10.2 3 Sudeste 11 Sur 0 -- -- 79
2020-01-08 16:00:00 11.3 9 Sur 20 Sur 0 -- -- 73
2020-01-08 15:00:00 12.9 10 Sur 22 Sur 0 -- -- 66
2020-01-08 14:00:00 12.4 13 Sur 22 Sur 0 -- -- 67
2020-01-08 13:00:00 11.7 15 Sur 24 Sudoeste 0 -- -- 68
2020-01-08 12:00:00 11.4 14 Sur 23 Sur 0 -- -- 64
2020-01-08 11:00:00 7.1 0 Calma 4 Norte 0 -- -- 70
2020-01-08 10:00:00 4.3 0 Calma 3 Norte 0 -- -- 82
2020-01-08 09:00:00 3.7 0 Calma 5 Noroeste 0 -- -- 83
2020-01-08 08:00:00 3.8 2 Norte 6 Norte 0 -- -- 81
2020-01-08 07:00:00 4.3 3 Norte 5 Norte 0 -- -- 78
2020-01-08 06:00:00 4.3 0 Calma 6 Norte 0 -- -- 71
2020-01-08 05:00:00 4.5 4 Norte 6 Norte 0 -- -- 73
2020-01-08 04:00:00 4 0 Calma 5 Norte 0 -- -- 69
2020-01-08 03:00:00 3.5 2 Norte 5 Noroeste 0 -- -- 71
2020-01-08 02:00:00 2.9 3 Norte 5 Noroeste 0 -- -- 79
2020-01-08 01:00:00 3.1 0 Calma 4 Noroeste 0 -- -- 78
2020-01-08 00:00:00 3.8 2 Noroeste 6 Norte 0 -- -- 79
2020-01-07 23:00:00 4.2 2 Noroeste 9 Noroeste 0 -- -- 83
2020-01-07 22:00:00 4.8 2 Noroeste 5 Noroeste 0 -- -- 87
2020-01-07 21:00:00 5.8 0 Calma 5 Noroeste 0 -- -- 86
2020-01-07 20:00:00 7 2 Norte 6 Norte 0 -- -- 84
2020-01-07 19:00:00 8.4 4 Norte 6 Norte 0 -- -- 81
2020-01-07 18:00:00 10.6 4 Sudeste 10 Sudeste 0 -- -- 73
2020-01-07 17:00:00 12.1 6 Sur 17 Sur 0 -- -- 66
2020-01-07 16:00:00 13.8 12 Sur 26 Sudoeste 0 -- -- 53
2020-01-07 15:00:00 16 9 Sur 15 Sudoeste 0 -- -- 36
2020-01-07 14:00:00 13.3 0 Calma 4 Noroeste 0 -- -- 41
2020-01-07 13:00:00 10.5 2 Norte 4 Noroeste 0 -- -- 46
2020-01-07 12:00:00 7.3 0 Calma 4 Norte 0 -- -- 62
2020-01-07 11:00:00 4.8 0 Calma 3 Nordeste 0 -- -- 64
2020-01-07 10:00:00 1.6 0 Calma 3 Noroeste 0 -- -- 78
2020-01-07 09:00:00 0.6 0 Calma 7 Noroeste 0 -- -- 82
2020-01-07 08:00:00 0.8 3 Noroeste 9 Noroeste 0 -- -- 80
2020-01-07 07:00:00 0.6 0 Calma 5 Oeste 0 -- -- 83
2020-01-07 06:00:00 0.7 3 Norte 6 Noroeste 0 -- -- 86
2020-01-07 05:00:00 1 3 Norte 6 Noroeste 0 -- -- 85
2020-01-07 04:00:00 1.2 0 Calma 7 Noroeste 0 -- -- 85
2020-01-07 03:00:00 1.7 0 Calma 6 Noroeste 0 -- -- 85
2020-01-07 02:00:00 2.3 3 Noroeste 8 Oeste 0 -- -- 84
2020-01-07 01:00:00 2.8 3 Noroeste 12 Oeste 0 -- -- 84
2020-01-07 00:00:00 3.8 4 Oeste 12 Oeste 0 -- -- 82
2020-01-06 23:00:00 3.9 0 Calma 9 Oeste 0 -- -- 86
2020-01-06 22:00:00 4.5 2 Noroeste 7 Noroeste 0 -- -- 89
2020-01-06 21:00:00 4.9 2 Noroeste 5 Oeste 0 -- -- 90
2020-01-06 20:00:00 6 0 Calma 4 Norte 0 -- -- 87
2020-01-06 19:00:00 7.1 4 Norte 5 Norte 0 -- -- 84
2020-01-06 18:00:00 9.4 0 Calma 9 Sur 0 -- -- 75
2020-01-06 17:00:00 10.7 3 Sur 15 Sur 0 -- -- 69
2020-01-06 16:00:00 11.9 8 Sur 20 Sur 0 -- -- 63
2020-01-06 15:00:00 13.7 12 Sur 20 Sur 0 -- -- 55
2020-01-06 14:00:00 13 13 Sur 18 Sur 0 -- -- 51
2020-01-06 13:00:00 9.2 2 Noroeste 5 Noroeste 0 -- -- 51
2020-01-06 12:00:00 6.5 2 Noroeste 4 Norte 0 -- -- 59
2020-01-06 11:00:00 3.4 2 Noroeste 6 Noroeste 0 -- -- 70
2020-01-06 10:00:00 1.2 0 Calma 10 Noroeste 0 -- -- 82